Wednesday, September 19, 2018, 2:54 PM EDT
Back to Local

KMTN, Baltimore / Martin

Location: Middle River, MD, United States Lat: 39.333
Local Time: 2:54 PM EDT (18:54 GMT) Lon: -76.417
Time Zone: US/Eastern Elev: 22 ft

Show me the last for .
Show Decoded

2018-09-19 13:45 METAR KMTN 191745Z 29009KT 10SM FEW090 SCT180 28/20 A2994 =
2018-09-19 12:55 METAR KMTN 191655Z 34010KT 10SM SCT090 SCT180 28/20 A2995 =
2018-09-19 11:45 METAR KMTN 191545Z 34009KT 10SM SCT075 SCT180 27/20 A2994 =
2018-09-19 10:55 METAR KMTN 191455Z 34011KT 10SM SCT180 27/21 A2994 =
2018-09-19 09:45 METAR KMTN 191345Z 35009KT 10SM SCT180 26/22 A2994 =
2018-09-19 08:50 METAR KMTN 191250Z 30009KT 10SM SCT180 24/22 A2993 =
2018-09-19 07:45 METAR KMTN 191145Z 30008KT 10SM SCT200 22/21 A2991 =
2018-09-19 06:45 METAR KMTN 191045Z 31004KT 10SM SCT200 21/21 A2988 =
2018-09-19 05:45 METAR KMTN 190945Z 31006KT 10SM SCT150 21/21 A2987 =
2018-09-19 05:30 METAR KMTN 190930Z AUTO 30006KT 10SM CLR 21/21 A2986 RMK AO2 =
2018-09-19 05:24 METAR KMTN 190924Z AUTO 30005KT 10SM CLR 21/21 A2986 RMK AO2 =
2018-09-19 05:03 METAR KMTN 190903Z AUTO 29008KT 10SM CLR 21/21 A2986 RMK AO2 =
2018-09-19 04:45 METAR KMTN 190845Z AUTO 29007KT 10SM CLR 20/20 A2985 RMK AO2 =
2018-09-19 04:24 METAR KMTN 190824Z AUTO 29004KT 10SM CLR 21/20 A2985 RMK AO2 =
2018-09-19 04:03 METAR KMTN 190803Z AUTO 00000KT 10SM CLR 21/20 A2985 RMK AO2 =
2018-09-19 03:45 METAR KMTN 190745Z AUTO 30003KT 10SM CLR 21/21 A2985 RMK AO2 =
2018-09-19 03:24 METAR KMTN 190724Z AUTO 30005KT 10SM CLR 21/21 A2985 RMK AO2 =
2018-09-19 03:03 METAR KMTN 190703Z AUTO 30005KT 10SM CLR 22/21 A2984 RMK AO2 =
2018-09-19 02:45 METAR KMTN 190645Z AUTO 30007KT 10SM CLR 22/21 A2984 RMK AO2 =
2018-09-19 02:24 METAR KMTN 190624Z AUTO 30008KT 10SM CLR 22/21 A2984 RMK AO2 =
2018-09-19 02:03 METAR KMTN 190603Z AUTO 30007KT 10SM CLR 22/21 A2984 RMK AO2 =
2018-09-19 01:45 METAR KMTN 190545Z AUTO 30005KT 10SM CLR 22/21 A2984 RMK AO2 =
2018-09-19 01:24 METAR KMTN 190524Z AUTO 30006KT 10SM CLR 22/21 A2983 RMK AO2 =
2018-09-19 01:03 METAR KMTN 190503Z AUTO 30007KT 10SM CLR 22/21 A2983 RMK AO2 =
2018-09-19 00:45 METAR KMTN 190445Z AUTO 29007KT 10SM CLR 22/21 A2983 RMK AO2 =
2018-09-19 00:24 METAR KMTN 190424Z AUTO 29005KT 10SM CLR 22/21 A2983 RMK AO2 =
2018-09-19 00:03 METAR KMTN 190403Z AUTO 30005KT 10SM CLR 22/21 A2983 RMK AO2 =
2018-09-18 23:45 METAR KMTN 190345Z AUTO 30005KT 10SM CLR 22/21 A2984 RMK AO2 =
2018-09-18 23:24 METAR KMTN 190324Z AUTO 30006KT 10SM CLR 22/21 A2984 RMK AO2 =
2018-09-18 23:03 METAR KMTN 190303Z AUTO 30005KT 10SM CLR 22/21 A2984 RMK AO2 =
2018-09-18 22:45 METAR KMTN 190245Z AUTO 30005KT 10SM CLR 22/21 A2984 RMK AO2 =
2018-09-18 22:24 METAR KMTN 190224Z AUTO 29005KT 10SM CLR 22/21 A2983 RMK AO2 =
2018-09-18 21:45 METAR KMTN 190145Z 31004KT 10SM SKC 23/22 A2983 RMK LAST =
2018-09-18 20:50 METAR KMTN 190050Z 30006KT 10SM SKC 23/22 A2982 =
2018-09-18 19:50 METAR KMTN 182350Z 29006KT 10SM SKC 24/22 A2981 =
2018-09-18 18:45 METAR KMTN 182245Z 32006KT 10SM BKN100 27/22 A2979 =
2018-09-18 17:45 METAR KMTN 182145Z 29008KT 10SM BKN100 27/24 A2978 =
2018-09-18 15:45 METAR KMTN 181945Z 32010G15KT 10SM BKN060 OVC100 26/23 A2976 =

Support USWX by starting your Amazon purchase here.